sensor_id;sensor_type;location;lat;lon;timestamp;P1;durP1;ratioP1;P2;durP2;ratioP2
77160;SDS011;66135;0.000;0.000;2024-03-07T00:02:04;2.78;;;1.55;;
77160;SDS011;66135;0.000;0.000;2024-03-07T00:06:55;3.22;;;2.45;;
77160;SDS011;66135;0.000;0.000;2024-03-07T00:09:20;2.75;;;1.58;;
77160;SDS011;66135;0.000;0.000;2024-03-07T00:11:49;2.80;;;1.83;;
77160;SDS011;66135;0.000;0.000;2024-03-07T00:16:40;3.55;;;1.95;;
77160;SDS011;66135;0.000;0.000;2024-03-07T00:21:31;4.65;;;1.73;;
77160;SDS011;66135;0.000;0.000;2024-03-07T00:26:22;4.57;;;2.33;;
77160;SDS011;66135;0.000;0.000;2024-03-07T00:31:13;3.57;;;2.20;;
77160;SDS011;66135;0.000;0.000;2024-03-07T00:33:38;3.45;;;2.33;;
77160;SDS011;66135;0.000;0.000;2024-03-07T00:36:04;3.55;;;2.17;;
77160;SDS011;66135;0.000;0.000;2024-03-07T00:38:30;3.22;;;2.03;;
77160;SDS011;66135;0.000;0.000;2024-03-07T00:43:21;2.85;;;1.70;;
77160;SDS011;66135;0.000;0.000;2024-03-07T00:45:47;3.65;;;2.20;;
77160;SDS011;66135;0.000;0.000;2024-03-07T00:48:15;5.15;;;2.95;;
77160;SDS011;66135;0.000;0.000;2024-03-07T00:50:41;3.88;;;2.58;;
77160;SDS011;66135;0.000;0.000;2024-03-07T00:55:33;3.65;;;2.53;;
77160;SDS011;66135;0.000;0.000;2024-03-07T01:00:24;3.63;;;1.97;;
77160;SDS011;66135;0.000;0.000;2024-03-07T01:02:49;3.72;;;2.15;;
77160;SDS011;66135;0.000;0.000;2024-03-07T01:05:18;3.05;;;2.20;;
77160;SDS011;66135;0.000;0.000;2024-03-07T01:10:12;3.83;;;2.35;;
77160;SDS011;66135;0.000;0.000;2024-03-07T01:12:38;2.85;;;2.00;;
77160;SDS011;66135;0.000;0.000;2024-03-07T01:17:29;3.63;;;2.33;;
77160;SDS011;66135;0.000;0.000;2024-03-07T01:19:55;3.53;;;2.03;;
77160;SDS011;66135;0.000;0.000;2024-03-07T01:24:47;3.47;;;2.08;;
77160;SDS011;66135;0.000;0.000;2024-03-07T01:27:13;3.80;;;2.53;;
77160;SDS011;66135;0.000;0.000;2024-03-07T01:32:06;3.55;;;2.40;;
77160;SDS011;66135;0.000;0.000;2024-03-07T01:36:57;3.58;;;2.40;;
77160;SDS011;66135;0.000;0.000;2024-03-07T01:41:48;4.03;;;2.35;;
77160;SDS011;66135;0.000;0.000;2024-03-07T01:46:39;3.30;;;2.37;;
77160;SDS011;66135;0.000;0.000;2024-03-07T01:49:06;3.50;;;2.53;;
77160;SDS011;66135;0.000;0.000;2024-03-07T01:53:58;4.68;;;2.85;;
77160;SDS011;66135;0.000;0.000;2024-03-07T01:58:49;4.75;;;3.17;;
77160;SDS011;66135;0.000;0.000;2024-03-07T02:01:17;4.63;;;2.50;;
77160;SDS011;66135;0.000;0.000;2024-03-07T02:06:08;4.20;;;2.80;;
77160;SDS011;66135;0.000;0.000;2024-03-07T02:08:33;4.15;;;2.58;;
77160;SDS011;66135;0.000;0.000;2024-03-07T02:11:00;4.07;;;2.90;;
77160;SDS011;66135;0.000;0.000;2024-03-07T02:15:51;4.30;;;2.70;;
77160;SDS011;66135;0.000;0.000;2024-03-07T02:20:45;3.80;;;2.20;;
77160;SDS011;66135;0.000;0.000;2024-03-07T02:23:13;3.88;;;2.65;;
77160;SDS011;66135;0.000;0.000;2024-03-07T02:25:39;4.05;;;2.70;;
77160;SDS011;66135;0.000;0.000;2024-03-07T02:28:05;5.15;;;2.90;;
77160;SDS011;66135;0.000;0.000;2024-03-07T02:30:31;3.88;;;2.30;;
77160;SDS011;66135;0.000;0.000;2024-03-07T02:32:59;3.97;;;2.92;;
77160;SDS011;66135;0.000;0.000;2024-03-07T02:35:34;4.10;;;3.15;;
77160;SDS011;66135;0.000;0.000;2024-03-07T02:38:01;4.53;;;2.50;;
77160;SDS011;66135;0.000;0.000;2024-03-07T02:40:28;3.22;;;2.28;;
77160;SDS011;66135;0.000;0.000;2024-03-07T02:42:54;3.97;;;3.00;;
77160;SDS011;66135;0.000;0.000;2024-03-07T02:47:44;5.30;;;3.10;;
77160;SDS011;66135;0.000;0.000;2024-03-07T02:52:35;4.93;;;3.67;;
77160;SDS011;66135;0.000;0.000;2024-03-07T02:55:01;4.38;;;3.10;;
77160;SDS011;66135;0.000;0.000;2024-03-07T02:57:29;4.38;;;2.70;;
77160;SDS011;66135;0.000;0.000;2024-03-07T02:59:55;3.40;;;2.78;;
77160;SDS011;66135;0.000;0.000;2024-03-07T03:02:21;5.00;;;2.85;;
77160;SDS011;66135;0.000;0.000;2024-03-07T03:04:47;4.22;;;2.63;;
77160;SDS011;66135;0.000;0.000;2024-03-07T03:07:12;4.10;;;3.22;;
77160;SDS011;66135;0.000;0.000;2024-03-07T03:09:38;3.80;;;3.08;;
77160;SDS011;66135;0.000;0.000;2024-03-07T03:12:08;5.05;;;3.22;;
77160;SDS011;66135;0.000;0.000;2024-03-07T03:14:34;4.80;;;3.17;;
77160;SDS011;66135;0.000;0.000;2024-03-07T03:17:00;4.05;;;3.15;;
77160;SDS011;66135;0.000;0.000;2024-03-07T03:19:25;4.68;;;3.15;;
77160;SDS011;66135;0.000;0.000;2024-03-07T03:21:51;4.72;;;3.03;;
77160;SDS011;66135;0.000;0.000;2024-03-07T03:24:17;4.50;;;3.15;;
77160;SDS011;66135;0.000;0.000;2024-03-07T03:26:42;4.35;;;2.97;;
77160;SDS011;66135;0.000;0.000;2024-03-07T03:29:08;3.67;;;2.97;;
77160;SDS011;66135;0.000;0.000;2024-03-07T03:31:34;4.50;;;3.33;;
77160;SDS011;66135;0.000;0.000;2024-03-07T03:34:00;4.53;;;2.80;;
77160;SDS011;66135;0.000;0.000;2024-03-07T03:36:26;5.22;;;3.42;;
77160;SDS011;66135;0.000;0.000;2024-03-07T03:38:51;4.95;;;3.03;;
77160;SDS011;66135;0.000;0.000;2024-03-07T03:41:17;4.72;;;2.85;;
77160;SDS011;66135;0.000;0.000;2024-03-07T03:46:11;5.05;;;3.17;;
77160;SDS011;66135;0.000;0.000;2024-03-07T03:48:38;4.30;;;3.13;;
77160;SDS011;66135;0.000;0.000;2024-03-07T03:51:06;5.53;;;2.80;;
77160;SDS011;66135;0.000;0.000;2024-03-07T03:53:32;4.63;;;3.15;;
77160;SDS011;66135;0.000;0.000;2024-03-07T03:55:58;6.80;;;3.50;;
77160;SDS011;66135;0.000;0.000;2024-03-07T03:58:24;4.43;;;2.90;;
77160;SDS011;66135;0.000;0.000;2024-03-07T04:00:49;4.57;;;3.33;;
77160;SDS011;66135;0.000;0.000;2024-03-07T04:03:14;5.90;;;3.97;;
77160;SDS011;66135;0.000;0.000;2024-03-07T04:05:40;3.92;;;2.92;;
77160;SDS011;66135;0.000;0.000;2024-03-07T04:08:06;4.78;;;3.20;;
77160;SDS011;66135;0.000;0.000;2024-03-07T04:10:32;4.35;;;3.17;;
77160;SDS011;66135;0.000;0.000;2024-03-07T04:12:58;5.18;;;3.50;;
77160;SDS011;66135;0.000;0.000;2024-03-07T04:15:24;5.53;;;3.72;;
77160;SDS011;66135;0.000;0.000;2024-03-07T04:17:52;5.10;;;3.28;;
77160;SDS011;66135;0.000;0.000;2024-03-07T04:20:17;6.32;;;3.17;;
77160;SDS011;66135;0.000;0.000;2024-03-07T04:22:43;5.63;;;3.05;;
77160;SDS011;66135;0.000;0.000;2024-03-07T04:25:09;5.13;;;3.17;;
77160;SDS011;66135;0.000;0.000;2024-03-07T04:27:35;4.25;;;3.25;;
77160;SDS011;66135;0.000;0.000;2024-03-07T04:30:05;5.72;;;3.80;;
77160;SDS011;66135;0.000;0.000;2024-03-07T04:32:32;5.38;;;3.72;;
77160;SDS011;66135;0.000;0.000;2024-03-07T04:34:59;4.90;;;3.35;;
77160;SDS011;66135;0.000;0.000;2024-03-07T04:37:25;5.07;;;3.67;;
77160;SDS011;66135;0.000;0.000;2024-03-07T04:39:52;5.57;;;3.30;;
77160;SDS011;66135;0.000;0.000;2024-03-07T04:42:18;6.85;;;4.18;;
77160;SDS011;66135;0.000;0.000;2024-03-07T04:44:43;4.95;;;3.45;;
77160;SDS011;66135;0.000;0.000;2024-03-07T04:47:08;5.68;;;3.55;;
77160;SDS011;66135;0.000;0.000;2024-03-07T04:49:34;5.85;;;3.78;;
77160;SDS011;66135;0.000;0.000;2024-03-07T04:52:00;6.15;;;3.95;;
77160;SDS011;66135;0.000;0.000;2024-03-07T04:54:28;5.63;;;3.63;;
77160;SDS011;66135;0.000;0.000;2024-03-07T04:56:55;5.43;;;3.47;;
77160;SDS011;66135;0.000;0.000;2024-03-07T04:59:21;6.35;;;3.95;;
77160;SDS011;66135;0.000;0.000;2024-03-07T05:01:47;5.22;;;3.75;;
77160;SDS011;66135;0.000;0.000;2024-03-07T05:04:15;6.40;;;3.95;;
77160;SDS011;66135;0.000;0.000;2024-03-07T05:06:41;6.00;;;4.20;;
77160;SDS011;66135;0.000;0.000;2024-03-07T05:09:08;6.05;;;3.95;;
77160;SDS011;66135;0.000;0.000;2024-03-07T05:11:35;5.88;;;4.25;;
77160;SDS011;66135;0.000;0.000;2024-03-07T05:14:01;5.63;;;3.97;;
77160;SDS011;66135;0.000;0.000;2024-03-07T05:16:27;6.65;;;4.38;;
77160;SDS011;66135;0.000;0.000;2024-03-07T05:18:54;5.85;;;4.25;;
77160;SDS011;66135;0.000;0.000;2024-03-07T05:21:23;5.50;;;3.65;;
77160;SDS011;66135;0.000;0.000;2024-03-07T05:24:02;6.63;;;4.28;;
77160;SDS011;66135;0.000;0.000;2024-03-07T05:26:28;5.15;;;3.85;;
77160;SDS011;66135;0.000;0.000;2024-03-07T05:29:02;5.28;;;3.88;;
77160;SDS011;66135;0.000;0.000;2024-03-07T05:31:30;5.45;;;3.53;;
77160;SDS011;66135;0.000;0.000;2024-03-07T05:33:59;6.15;;;3.85;;
77160;SDS011;66135;0.000;0.000;2024-03-07T05:36:25;4.85;;;3.30;;
77160;SDS011;66135;0.000;0.000;2024-03-07T05:38:51;6.68;;;3.63;;
77160;SDS011;66135;0.000;0.000;2024-03-07T05:41:17;5.20;;;3.50;;
77160;SDS011;66135;0.000;0.000;2024-03-07T05:43:42;5.30;;;3.72;;
77160;SDS011;66135;0.000;0.000;2024-03-07T05:46:09;5.72;;;3.58;;
77160;SDS011;66135;0.000;0.000;2024-03-07T05:48:36;5.85;;;4.38;;
77160;SDS011;66135;0.000;0.000;2024-03-07T05:51:02;7.07;;;4.00;;
77160;SDS011;66135;0.000;0.000;2024-03-07T05:53:27;7.13;;;5.05;;
77160;SDS011;66135;0.000;0.000;2024-03-07T05:55:53;7.53;;;4.82;;
77160;SDS011;66135;0.000;0.000;2024-03-07T05:58:19;8.13;;;4.97;;
77160;SDS011;66135;0.000;0.000;2024-03-07T06:00:45;6.47;;;4.97;;
77160;SDS011;66135;0.000;0.000;2024-03-07T06:03:14;6.85;;;4.63;;
77160;SDS011;66135;0.000;0.000;2024-03-07T06:05:47;6.00;;;4.70;;
77160;SDS011;66135;0.000;0.000;2024-03-07T06:08:16;6.93;;;4.90;;
77160;SDS011;66135;0.000;0.000;2024-03-07T06:10:43;6.95;;;4.72;;
77160;SDS011;66135;0.000;0.000;2024-03-07T06:13:10;6.75;;;4.20;;
77160;SDS011;66135;0.000;0.000;2024-03-07T06:15:37;7.20;;;4.28;;
77160;SDS011;66135;0.000;0.000;2024-03-07T06:18:04;5.20;;;4.18;;
77160;SDS011;66135;0.000;0.000;2024-03-07T06:22:55;5.43;;;3.77;;
77160;SDS011;66135;0.000;0.000;2024-03-07T06:25:22;8.57;;;4.22;;
77160;SDS011;66135;0.000;0.000;2024-03-07T06:28:05;6.28;;;4.05;;
77160;SDS011;66135;0.000;0.000;2024-03-07T06:30:38;6.55;;;4.57;;
77160;SDS011;66135;0.000;0.000;2024-03-07T06:33:08;7.63;;;4.82;;
77160;SDS011;66135;0.000;0.000;2024-03-07T06:35:33;7.32;;;4.32;;
77160;SDS011;66135;0.000;0.000;2024-03-07T06:38:05;7.35;;;4.85;;
77160;SDS011;66135;0.000;0.000;2024-03-07T06:40:31;6.93;;;3.78;;
77160;SDS011;66135;0.000;0.000;2024-03-07T06:42:58;5.85;;;4.45;;
77160;SDS011;66135;0.000;0.000;2024-03-07T06:45:24;7.00;;;4.60;;
77160;SDS011;66135;0.000;0.000;2024-03-07T06:47:49;6.47;;;4.25;;
77160;SDS011;66135;0.000;0.000;2024-03-07T06:50:17;4.70;;;3.65;;
77160;SDS011;66135;0.000;0.000;2024-03-07T06:52:45;6.55;;;4.22;;
77160;SDS011;66135;0.000;0.000;2024-03-07T06:55:13;6.18;;;4.28;;
77160;SDS011;66135;0.000;0.000;2024-03-07T06:57:45;5.88;;;4.55;;
77160;SDS011;66135;0.000;0.000;2024-03-07T07:00:11;5.70;;;4.00;;
77160;SDS011;66135;0.000;0.000;2024-03-07T07:02:39;5.25;;;3.92;;
77160;SDS011;66135;0.000;0.000;2024-03-07T07:05:06;5.78;;;4.40;;
77160;SDS011;66135;0.000;0.000;2024-03-07T07:07:36;7.40;;;4.55;;
77160;SDS011;66135;0.000;0.000;2024-03-07T07:10:07;6.45;;;4.40;;
77160;SDS011;66135;0.000;0.000;2024-03-07T07:12:38;8.30;;;5.22;;
77160;SDS011;66135;0.000;0.000;2024-03-07T07:15:03;7.20;;;4.97;;
77160;SDS011;66135;0.000;0.000;2024-03-07T07:17:29;7.63;;;5.13;;
77160;SDS011;66135;0.000;0.000;2024-03-07T07:19:57;6.78;;;4.43;;
77160;SDS011;66135;0.000;0.000;2024-03-07T07:22:23;8.40;;;5.38;;
77160;SDS011;66135;0.000;0.000;2024-03-07T07:24:48;9.73;;;5.47;;
77160;SDS011;66135;0.000;0.000;2024-03-07T07:27:14;8.27;;;4.97;;
77160;SDS011;66135;0.000;0.000;2024-03-07T07:29:40;6.70;;;4.82;;
77160;SDS011;66135;0.000;0.000;2024-03-07T07:34:31;8.68;;;5.80;;
77160;SDS011;66135;0.000;0.000;2024-03-07T07:36:57;7.80;;;5.38;;
77160;SDS011;66135;0.000;0.000;2024-03-07T07:39:23;7.75;;;5.18;;
77160;SDS011;66135;0.000;0.000;2024-03-07T07:41:49;7.85;;;4.78;;
77160;SDS011;66135;0.000;0.000;2024-03-07T07:44:15;7.38;;;4.95;;
77160;SDS011;66135;0.000;0.000;2024-03-07T07:46:41;9.00;;;5.68;;
77160;SDS011;66135;0.000;0.000;2024-03-07T07:49:06;8.60;;;5.80;;
77160;SDS011;66135;0.000;0.000;2024-03-07T07:51:31;8.18;;;5.18;;
77160;SDS011;66135;0.000;0.000;2024-03-07T07:53:57;6.07;;;4.70;;
77160;SDS011;66135;0.000;0.000;2024-03-07T07:56:23;6.90;;;4.72;;
77160;SDS011;66135;0.000;0.000;2024-03-07T07:58:49;6.00;;;4.72;;
77160;SDS011;66135;0.000;0.000;2024-03-07T08:01:15;6.78;;;5.15;;
77160;SDS011;66135;0.000;0.000;2024-03-07T08:03:42;6.43;;;4.93;;
77160;SDS011;66135;0.000;0.000;2024-03-07T08:06:08;5.32;;;3.67;;
77160;SDS011;66135;0.000;0.000;2024-03-07T08:08:34;6.82;;;4.57;;
77160;SDS011;66135;0.000;0.000;2024-03-07T08:10:59;5.57;;;4.25;;
77160;SDS011;66135;0.000;0.000;2024-03-07T08:13:26;6.25;;;4.47;;
77160;SDS011;66135;0.000;0.000;2024-03-07T08:15:52;5.75;;;4.38;;
77160;SDS011;66135;0.000;0.000;2024-03-07T08:18:19;5.88;;;3.88;;
77160;SDS011;66135;0.000;0.000;2024-03-07T08:23:10;6.25;;;3.78;;
77160;SDS011;66135;0.000;0.000;2024-03-07T08:25:37;6.25;;;4.13;;
77160;SDS011;66135;0.000;0.000;2024-03-07T08:28:06;4.95;;;4.15;;
77160;SDS011;66135;0.000;0.000;2024-03-07T08:30:33;5.82;;;3.90;;
77160;SDS011;66135;0.000;0.000;2024-03-07T08:33:00;7.63;;;4.40;;
77160;SDS011;66135;0.000;0.000;2024-03-07T08:35:28;6.13;;;4.40;;
77160;SDS011;66135;0.000;0.000;2024-03-07T08:37:56;6.07;;;3.90;;
77160;SDS011;66135;0.000;0.000;2024-03-07T08:42:49;7.95;;;4.85;;
77160;SDS011;66135;0.000;0.000;2024-03-07T08:45:25;8.25;;;4.72;;
77160;SDS011;66135;0.000;0.000;2024-03-07T08:47:52;7.80;;;5.47;;
77160;SDS011;66135;0.000;0.000;2024-03-07T08:50:20;8.50;;;5.55;;
77160;SDS011;66135;0.000;0.000;2024-03-07T08:52:46;9.10;;;6.00;;
77160;SDS011;66135;0.000;0.000;2024-03-07T08:55:13;7.75;;;5.90;;
77160;SDS011;66135;0.000;0.000;2024-03-07T08:57:40;8.93;;;5.43;;
77160;SDS011;66135;0.000;0.000;2024-03-07T09:00:07;8.57;;;5.10;;
77160;SDS011;66135;0.000;0.000;2024-03-07T09:02:34;9.20;;;5.55;;
77160;SDS011;66135;0.000;0.000;2024-03-07T09:05:01;7.72;;;5.20;;
77160;SDS011;66135;0.000;0.000;2024-03-07T09:07:27;8.70;;;5.70;;
77160;SDS011;66135;0.000;0.000;2024-03-07T09:09:54;8.65;;;6.22;;
77160;SDS011;66135;0.000;0.000;2024-03-07T09:12:20;10.98;;;6.18;;
77160;SDS011;66135;0.000;0.000;2024-03-07T09:14:45;8.45;;;6.95;;
77160;SDS011;66135;0.000;0.000;2024-03-07T09:17:11;8.15;;;6.07;;
77160;SDS011;66135;0.000;0.000;2024-03-07T09:19:37;8.32;;;6.07;;
77160;SDS011;66135;0.000;0.000;2024-03-07T09:22:02;8.82;;;5.55;;
77160;SDS011;66135;0.000;0.000;2024-03-07T09:24:29;7.18;;;5.43;;
77160;SDS011;66135;0.000;0.000;2024-03-07T09:26:55;9.07;;;6.70;;
77160;SDS011;66135;0.000;0.000;2024-03-07T09:29:22;8.90;;;6.30;;
77160;SDS011;66135;0.000;0.000;2024-03-07T09:31:51;6.47;;;5.68;;
77160;SDS011;66135;0.000;0.000;2024-03-07T09:34:18;9.32;;;5.85;;
77160;SDS011;66135;0.000;0.000;2024-03-07T09:36:45;8.38;;;5.57;;
77160;SDS011;66135;0.000;0.000;2024-03-07T09:39:11;9.20;;;6.05;;
77160;SDS011;66135;0.000;0.000;2024-03-07T09:41:40;7.32;;;5.65;;
77160;SDS011;66135;0.000;0.000;2024-03-07T09:44:05;7.32;;;5.50;;
77160;SDS011;66135;0.000;0.000;2024-03-07T09:46:34;8.02;;;5.72;;
77160;SDS011;66135;0.000;0.000;2024-03-07T09:49:01;9.77;;;5.93;;
77160;SDS011;66135;0.000;0.000;2024-03-07T09:51:26;7.90;;;5.30;;
77160;SDS011;66135;0.000;0.000;2024-03-07T09:53:54;7.63;;;5.25;;
77160;SDS011;66135;0.000;0.000;2024-03-07T09:56:23;6.38;;;5.20;;
77160;SDS011;66135;0.000;0.000;2024-03-07T09:58:52;7.80;;;5.45;;
77160;SDS011;66135;0.000;0.000;2024-03-07T10:01:21;8.40;;;5.15;;
77160;SDS011;66135;0.000;0.000;2024-03-07T10:03:50;5.97;;;5.00;;
77160;SDS011;66135;0.000;0.000;2024-03-07T10:06:22;9.95;;;5.07;;
77160;SDS011;66135;0.000;0.000;2024-03-07T10:08:48;5.35;;;4.78;;
77160;SDS011;66135;0.000;0.000;2024-03-07T10:11:15;6.15;;;4.68;;
77160;SDS011;66135;0.000;0.000;2024-03-07T10:13:41;9.98;;;5.47;;
77160;SDS011;66135;0.000;0.000;2024-03-07T10:16:07;8.55;;;5.43;;
77160;SDS011;66135;0.000;0.000;2024-03-07T10:18:33;9.27;;;4.82;;
77160;SDS011;66135;0.000;0.000;2024-03-07T10:21:06;6.40;;;4.88;;
77160;SDS011;66135;0.000;0.000;2024-03-07T10:23:31;8.38;;;5.70;;
77160;SDS011;66135;0.000;0.000;2024-03-07T10:25:59;6.65;;;4.85;;
77160;SDS011;66135;0.000;0.000;2024-03-07T10:28:26;5.78;;;4.75;;
77160;SDS011;66135;0.000;0.000;2024-03-07T10:30:53;6.05;;;4.18;;
77160;SDS011;66135;0.000;0.000;2024-03-07T10:33:18;7.78;;;5.00;;
77160;SDS011;66135;0.000;0.000;2024-03-07T10:35:47;6.25;;;4.88;;
77160;SDS011;66135;0.000;0.000;2024-03-07T10:38:16;7.72;;;5.05;;
77160;SDS011;66135;0.000;0.000;2024-03-07T10:40:43;5.45;;;4.72;;
77160;SDS011;66135;0.000;0.000;2024-03-07T10:43:12;6.97;;;4.13;;
77160;SDS011;66135;0.000;0.000;2024-03-07T10:48:12;9.63;;;6.40;;
77160;SDS011;66135;0.000;0.000;2024-03-07T10:59:01;8.07;;;5.57;;
77160;SDS011;66135;0.000;0.000;2024-03-07T11:01:39;7.97;;;5.50;;
77160;SDS011;66135;0.000;0.000;2024-03-07T11:04:29;8.00;;;5.40;;
77160;SDS011;66135;0.000;0.000;2024-03-07T11:06:56;7.78;;;6.07;;
77160;SDS011;66135;0.000;0.000;2024-03-07T11:09:24;6.88;;;5.75;;
77160;SDS011;66135;0.000;0.000;2024-03-07T11:11:54;6.80;;;5.45;;
77160;SDS011;66135;0.000;0.000;2024-03-07T11:14:21;6.88;;;5.50;;
77160;SDS011;66135;0.000;0.000;2024-03-07T11:16:47;7.82;;;5.30;;
77160;SDS011;66135;0.000;0.000;2024-03-07T11:19:25;7.00;;;5.03;;
77160;SDS011;66135;0.000;0.000;2024-03-07T11:21:53;7.22;;;5.63;;
77160;SDS011;66135;0.000;0.000;2024-03-07T11:24:26;8.88;;;6.35;;
77160;SDS011;66135;0.000;0.000;2024-03-07T11:27:02;6.50;;;5.03;;
77160;SDS011;66135;0.000;0.000;2024-03-07T11:34:38;6.18;;;4.38;;
77160;SDS011;66135;0.000;0.000;2024-03-07T11:37:06;7.00;;;5.28;;
77160;SDS011;66135;0.000;0.000;2024-03-07T11:39:45;6.65;;;5.32;;
77160;SDS011;66135;0.000;0.000;2024-03-07T11:42:25;7.30;;;4.93;;
77160;SDS011;66135;0.000;0.000;2024-03-07T11:44:55;7.05;;;5.03;;
77160;SDS011;66135;0.000;0.000;2024-03-07T11:47:25;6.15;;;4.78;;
77160;SDS011;66135;0.000;0.000;2024-03-07T11:49:54;5.88;;;4.97;;
77160;SDS011;66135;0.000;0.000;2024-03-07T11:52:22;5.80;;;5.13;;
77160;SDS011;66135;0.000;0.000;2024-03-07T11:54:48;5.63;;;4.43;;
77160;SDS011;66135;0.000;0.000;2024-03-07T11:57:17;6.10;;;4.90;;
77160;SDS011;66135;0.000;0.000;2024-03-07T11:59:57;6.45;;;5.25;;
77160;SDS011;66135;0.000;0.000;2024-03-07T12:02:26;6.22;;;4.65;;
77160;SDS011;66135;0.000;0.000;2024-03-07T12:04:52;6.47;;;5.03;;
77160;SDS011;66135;0.000;0.000;2024-03-07T12:07:18;8.75;;;5.68;;
77160;SDS011;66135;0.000;0.000;2024-03-07T12:09:47;6.82;;;4.97;;
77160;SDS011;66135;0.000;0.000;2024-03-07T13:59:54;5.53;;;4.10;;
77160;SDS011;66135;0.000;0.000;2024-03-07T14:05:34;7.53;;;5.03;;
77160;SDS011;66135;0.000;0.000;2024-03-07T14:13:50;7.00;;;4.13;;
77160;SDS011;66135;0.000;0.000;2024-03-07T14:27:43;6.90;;;4.97;;
77160;SDS011;66135;0.000;0.000;2024-03-07T14:33:08;6.03;;;4.32;;
77160;SDS011;66135;0.000;0.000;2024-03-07T14:35:37;8.90;;;5.28;;
77160;SDS011;66135;0.000;0.000;2024-03-07T14:38:29;7.35;;;5.53;;
77160;SDS011;66135;0.000;0.000;2024-03-07T14:41:15;5.97;;;5.10;;
77160;SDS011;66135;0.000;0.000;2024-03-07T14:43:47;8.43;;;5.13;;
77160;SDS011;66135;0.000;0.000;2024-03-07T14:46:14;8.20;;;4.82;;
77160;SDS011;66135;0.000;0.000;2024-03-07T14:48:40;6.05;;;4.82;;
77160;SDS011;66135;0.000;0.000;2024-03-07T14:51:07;7.45;;;5.15;;
77160;SDS011;66135;0.000;0.000;2024-03-07T14:53:34;6.57;;;4.75;;
77160;SDS011;66135;0.000;0.000;2024-03-07T14:56:00;5.45;;;4.40;;
77160;SDS011;66135;0.000;0.000;2024-03-07T14:58:25;7.50;;;5.28;;
77160;SDS011;66135;0.000;0.000;2024-03-07T15:00:51;6.78;;;3.92;;
77160;SDS011;66135;0.000;0.000;2024-03-07T15:03:19;6.57;;;4.20;;
77160;SDS011;66135;0.000;0.000;2024-03-07T15:05:45;6.18;;;4.30;;
77160;SDS011;66135;0.000;0.000;2024-03-07T15:08:14;6.35;;;4.30;;
77160;SDS011;66135;0.000;0.000;2024-03-07T15:10:47;6.32;;;4.30;;
77160;SDS011;66135;0.000;0.000;2024-03-07T15:13:16;6.93;;;4.60;;
77160;SDS011;66135;0.000;0.000;2024-03-07T15:15:42;7.13;;;4.47;;
77160;SDS011;66135;0.000;0.000;2024-03-07T15:18:09;5.53;;;3.92;;
77160;SDS011;66135;0.000;0.000;2024-03-07T15:23:01;7.78;;;4.85;;
77160;SDS011;66135;0.000;0.000;2024-03-07T15:25:28;6.78;;;4.82;;
77160;SDS011;66135;0.000;0.000;2024-03-07T15:27:55;9.55;;;5.72;;
77160;SDS011;66135;0.000;0.000;2024-03-07T15:30:23;7.53;;;5.10;;
77160;SDS011;66135;0.000;0.000;2024-03-07T15:32:49;6.28;;;4.65;;
77160;SDS011;66135;0.000;0.000;2024-03-07T15:35:16;12.57;;;6.00;;
77160;SDS011;66135;0.000;0.000;2024-03-07T15:37:48;9.30;;;5.47;;
77160;SDS011;66135;0.000;0.000;2024-03-07T15:40:14;6.47;;;4.50;;
77160;SDS011;66135;0.000;0.000;2024-03-07T15:42:41;7.78;;;5.03;;
77160;SDS011;66135;0.000;0.000;2024-03-07T15:45:08;8.18;;;5.00;;
77160;SDS011;66135;0.000;0.000;2024-03-07T15:50:35;7.05;;;4.78;;
77160;SDS011;66135;0.000;0.000;2024-03-07T15:53:02;8.65;;;4.65;;
77160;SDS011;66135;0.000;0.000;2024-03-07T15:55:29;8.75;;;4.93;;
77160;SDS011;66135;0.000;0.000;2024-03-07T15:57:58;7.55;;;5.05;;
77160;SDS011;66135;0.000;0.000;2024-03-07T16:00:29;6.22;;;4.47;;
77160;SDS011;66135;0.000;0.000;2024-03-07T16:03:05;7.65;;;5.32;;
77160;SDS011;66135;0.000;0.000;2024-03-07T16:05:38;5.55;;;4.45;;
77160;SDS011;66135;0.000;0.000;2024-03-07T16:08:05;10.00;;;4.72;;
77160;SDS011;66135;0.000;0.000;2024-03-07T16:10:33;8.02;;;5.15;;
77160;SDS011;66135;0.000;0.000;2024-03-07T16:13:00;7.07;;;4.85;;
77160;SDS011;66135;0.000;0.000;2024-03-07T16:15:27;11.63;;;5.55;;
77160;SDS011;66135;0.000;0.000;2024-03-07T16:17:53;7.97;;;5.35;;
77160;SDS011;66135;0.000;0.000;2024-03-07T16:20:27;8.10;;;5.40;;
77160;SDS011;66135;0.000;0.000;2024-03-07T16:22:53;6.93;;;4.40;;
77160;SDS011;66135;0.000;0.000;2024-03-07T16:25:20;9.05;;;5.15;;
77160;SDS011;66135;0.000;0.000;2024-03-07T16:27:46;8.02;;;5.63;;
77160;SDS011;66135;0.000;0.000;2024-03-07T16:30:13;9.40;;;6.10;;
77160;SDS011;66135;0.000;0.000;2024-03-07T16:32:41;8.43;;;5.00;;
77160;SDS011;66135;0.000;0.000;2024-03-07T16:35:07;8.80;;;5.47;;
77160;SDS011;66135;0.000;0.000;2024-03-07T16:37:37;9.43;;;5.10;;
77160;SDS011;66135;0.000;0.000;2024-03-07T16:40:07;7.53;;;4.38;;
77160;SDS011;66135;0.000;0.000;2024-03-07T16:42:38;8.73;;;4.82;;
77160;SDS011;66135;0.000;0.000;2024-03-07T16:45:08;8.02;;;5.47;;
77160;SDS011;66135;0.000;0.000;2024-03-07T16:47:43;10.38;;;5.63;;
77160;SDS011;66135;0.000;0.000;2024-03-07T16:50:09;8.73;;;5.20;;
77160;SDS011;66135;0.000;0.000;2024-03-07T16:52:38;8.88;;;5.15;;
77160;SDS011;66135;0.000;0.000;2024-03-07T16:55:04;9.52;;;5.78;;
77160;SDS011;66135;0.000;0.000;2024-03-07T16:57:39;7.97;;;6.05;;
77160;SDS011;66135;0.000;0.000;2024-03-07T17:00:06;10.25;;;5.50;;
77160;SDS011;66135;0.000;0.000;2024-03-07T17:02:35;8.80;;;5.43;;
77160;SDS011;66135;0.000;0.000;2024-03-07T17:05:04;10.90;;;6.03;;
77160;SDS011;66135;0.000;0.000;2024-03-07T17:07:38;10.40;;;5.93;;
77160;SDS011;66135;0.000;0.000;2024-03-07T17:10:03;10.32;;;5.82;;
77160;SDS011;66135;0.000;0.000;2024-03-07T17:12:31;12.80;;;6.53;;
77160;SDS011;66135;0.000;0.000;2024-03-07T17:14:56;11.60;;;5.70;;
77160;SDS011;66135;0.000;0.000;2024-03-07T17:17:22;9.88;;;6.13;;
77160;SDS011;66135;0.000;0.000;2024-03-07T17:19:48;8.20;;;5.32;;
77160;SDS011;66135;0.000;0.000;2024-03-07T17:22:14;7.35;;;5.55;;
77160;SDS011;66135;0.000;0.000;2024-03-07T17:24:40;6.35;;;4.80;;
77160;SDS011;66135;0.000;0.000;2024-03-07T17:29:31;9.52;;;5.07;;
77160;SDS011;66135;0.000;0.000;2024-03-07T17:34:24;8.38;;;4.60;;
77160;SDS011;66135;0.000;0.000;2024-03-07T17:36:49;8.07;;;4.35;;
77160;SDS011;66135;0.000;0.000;2024-03-07T17:39:15;7.10;;;3.95;;
77160;SDS011;66135;0.000;0.000;2024-03-07T17:41:41;6.47;;;4.57;;
77160;SDS011;66135;0.000;0.000;2024-03-07T17:44:07;7.88;;;4.40;;
77160;SDS011;66135;0.000;0.000;2024-03-07T17:46:42;6.45;;;4.47;;
77160;SDS011;66135;0.000;0.000;2024-03-07T17:49:11;6.72;;;4.07;;
77160;SDS011;66135;0.000;0.000;2024-03-07T17:51:37;6.18;;;4.30;;
77160;SDS011;66135;0.000;0.000;2024-03-07T17:56:33;8.63;;;4.40;;
77160;SDS011;66135;0.000;0.000;2024-03-07T17:58:59;7.82;;;4.07;;
77160;SDS011;66135;0.000;0.000;2024-03-07T18:03:51;9.20;;;3.95;;
77160;SDS011;66135;0.000;0.000;2024-03-07T18:06:17;12.27;;;3.55;;
77160;SDS011;66135;0.000;0.000;2024-03-07T18:08:47;11.13;;;4.28;;
77160;SDS011;66135;0.000;0.000;2024-03-07T18:11:16;10.75;;;4.30;;
77160;SDS011;66135;0.000;0.000;2024-03-07T18:13:42;6.85;;;3.60;;
77160;SDS011;66135;0.000;0.000;2024-03-07T18:16:08;9.05;;;3.63;;
77160;SDS011;66135;0.000;0.000;2024-03-07T18:18:34;12.40;;;3.47;;
77160;SDS011;66135;0.000;0.000;2024-03-07T18:23:26;12.23;;;4.75;;
77160;SDS011;66135;0.000;0.000;2024-03-07T18:25:53;5.57;;;3.03;;
77160;SDS011;66135;0.000;0.000;2024-03-07T18:28:19;5.43;;;3.88;;
77160;SDS011;66135;0.000;0.000;2024-03-07T18:33:11;8.65;;;3.20;;
77160;SDS011;66135;0.000;0.000;2024-03-07T18:35:38;5.40;;;3.25;;
77160;SDS011;66135;0.000;0.000;2024-03-07T18:40:32;6.47;;;3.17;;
77160;SDS011;66135;0.000;0.000;2024-03-07T18:42:58;7.93;;;3.45;;
77160;SDS011;66135;0.000;0.000;2024-03-07T18:45:31;7.57;;;3.28;;
77160;SDS011;66135;0.000;0.000;2024-03-07T18:47:58;7.10;;;3.72;;
77160;SDS011;66135;0.000;0.000;2024-03-07T18:52:52;11.40;;;3.50;;
77160;SDS011;66135;0.000;0.000;2024-03-07T18:55:19;12.00;;;3.10;;
77160;SDS011;66135;0.000;0.000;2024-03-07T18:57:55;10.48;;;2.97;;
77160;SDS011;66135;0.000;0.000;2024-03-07T19:00:28;8.27;;;4.22;;